createdAt,value
2019-03-27T00:00:33.535Z,11.20
2019-03-27T00:03:02.249Z,11.20
2019-03-27T00:05:30.984Z,11.20
2019-03-27T00:07:59.638Z,11.20
2019-03-27T00:10:28.305Z,11.10
2019-03-27T00:12:56.975Z,11.20
2019-03-27T00:15:25.714Z,11.20
2019-03-27T00:17:54.536Z,11.20
2019-03-27T00:20:23.226Z,11.10
2019-03-27T00:22:53.216Z,11.00
2019-03-27T00:25:21.902Z,11.00
2019-03-27T00:27:50.571Z,10.90
2019-03-27T00:30:19.369Z,10.90
2019-03-27T00:32:48.038Z,10.90
2019-03-27T00:35:16.693Z,10.80
2019-03-27T00:37:46.089Z,10.80
2019-03-27T00:40:14.879Z,10.80
2019-03-27T00:42:43.670Z,10.80
2019-03-27T00:45:25.443Z,10.70
2019-03-27T00:47:42.931Z,10.70
2019-03-27T00:50:14.763Z,10.70
2019-03-27T00:52:43.409Z,10.60
2019-03-27T00:55:13.986Z,10.70
2019-03-27T00:57:42.654Z,10.70
2019-03-27T01:00:17.381Z,10.70
2019-03-27T01:02:47.687Z,10.60
2019-03-27T01:05:16.396Z,10.50
2019-03-27T01:07:45.148Z,10.50
2019-03-27T01:10:14.454Z,10.50
2019-03-27T01:12:43.103Z,10.50
2019-03-27T01:15:11.816Z,10.50
2019-03-27T01:17:40.568Z,10.60
2019-03-27T01:20:09.463Z,10.60
2019-03-27T01:22:38.188Z,10.70
2019-03-27T01:25:07.392Z,10.60
2019-03-27T01:27:37.407Z,10.50
2019-03-27T01:30:06.754Z,10.40
2019-03-27T01:32:35.415Z,10.40
2019-03-27T01:35:05.677Z,10.40
2019-03-27T01:37:34.342Z,10.40
2019-03-27T01:40:03.142Z,10.40
2019-03-27T01:42:31.798Z,10.50
2019-03-27T01:45:00.455Z,10.50
2019-03-27T01:47:29.123Z,10.50
2019-03-27T01:49:57.854Z,10.40
2019-03-27T01:52:27.684Z,10.40
2019-03-27T01:54:56.326Z,10.40
2019-03-27T01:57:25.053Z,10.40
2019-03-27T01:59:53.755Z,10.40
2019-03-27T02:02:22.477Z,10.40
2019-03-27T02:04:51.140Z,10.30
2019-03-27T02:07:19.781Z,10.20
2019-03-27T02:09:48.442Z,10.10
2019-03-27T02:12:18.726Z,10.10
2019-03-27T02:14:47.403Z,10.10
2019-03-27T02:17:16.126Z,10.00
2019-03-27T02:19:44.857Z,10.00
2019-03-27T02:22:13.579Z,10.00
2019-03-27T02:24:42.237Z,10.00
2019-03-27T02:27:10.966Z,9.90
2019-03-27T02:29:39.627Z,9.90
2019-03-27T02:32:08.344Z,9.70
2019-03-27T02:34:37.129Z,9.80
2019-03-27T02:37:05.863Z,9.80
2019-03-27T02:39:34.542Z,9.80
2019-03-27T02:42:03.287Z,9.80
2019-03-27T02:44:33.280Z,9.70
2019-03-27T02:47:01.969Z,9.60
2019-03-27T02:49:31.530Z,9.60
2019-03-27T02:52:00.261Z,9.60
2019-03-27T02:54:28.911Z,9.60
2019-03-27T02:56:57.687Z,9.50
2019-03-27T02:59:26.416Z,9.50
2019-03-27T03:01:58.133Z,9.70
2019-03-27T03:04:26.835Z,9.60
2019-03-27T03:06:55.483Z,9.70
2019-03-27T03:09:24.256Z,9.60
2019-03-27T03:11:52.903Z,9.60
2019-03-27T03:14:21.544Z,9.60
2019-03-27T03:16:52.135Z,9.70
2019-03-27T03:19:20.783Z,9.70
2019-03-27T03:21:49.499Z,9.60
2019-03-27T03:24:18.181Z,9.60
2019-03-27T03:26:50.897Z,9.50
2019-03-27T03:29:17.805Z,9.60
2019-03-27T03:31:46.666Z,9.60
2019-03-27T03:34:15.311Z,9.60
2019-03-27T03:36:43.965Z,9.70
2019-03-27T03:39:12.655Z,9.80
2019-03-27T03:41:41.405Z,9.80
2019-03-27T03:44:11.429Z,9.80
2019-03-27T03:46:40.655Z,9.70
2019-03-27T03:49:10.508Z,9.60
2019-03-27T03:51:39.817Z,9.60
2019-03-27T03:54:08.815Z,9.60
2019-03-27T03:56:41.031Z,9.60
2019-03-27T03:59:12.271Z,9.60
2019-03-27T04:01:43.419Z,9.70
2019-03-27T04:04:13.536Z,9.70
2019-03-27T04:06:43.826Z,9.70
2019-03-27T04:09:12.474Z,9.70
2019-03-27T04:11:42.683Z,9.80
2019-03-27T04:14:11.386Z,9.80
2019-03-27T04:16:40.146Z,9.80
2019-03-27T04:19:08.794Z,9.80
2019-03-27T04:21:37.613Z,9.70
2019-03-27T04:24:06.345Z,9.80
2019-03-27T04:26:35.084Z,9.80
2019-03-27T04:29:04.016Z,9.80
2019-03-27T04:31:32.751Z,9.80
2019-03-27T04:34:03.210Z,9.80
2019-03-27T04:36:34.883Z,9.80
2019-03-27T04:39:04.826Z,9.90
2019-03-27T04:41:33.467Z,9.90
2019-03-27T04:44:02.695Z,9.90
2019-03-27T04:46:31.431Z,9.90
2019-03-27T04:49:07.637Z,9.80
2019-03-27T04:51:35.413Z,9.80
2019-03-27T04:54:04.073Z,9.80
2019-03-27T04:56:32.865Z,9.80
2019-03-27T04:59:01.558Z,9.80
2019-03-27T05:01:30.281Z,9.90
2019-03-27T05:03:59.593Z,9.80
2019-03-27T05:06:28.247Z,9.80
2019-03-27T05:08:56.898Z,9.80
2019-03-27T05:11:25.622Z,9.80
2019-03-27T05:13:54.277Z,9.90
2019-03-27T05:16:22.938Z,9.90
2019-03-27T05:18:51.624Z,9.90
2019-03-27T05:21:21.937Z,9.90
2019-03-27T05:23:51.877Z,9.90
2019-03-27T05:26:20.622Z,9.90
2019-03-27T05:28:49.342Z,9.90
2019-03-27T05:31:18.020Z,9.90
2019-03-27T05:33:47.934Z,9.90
2019-03-27T05:36:19.797Z,9.90
2019-03-27T05:38:48.434Z,9.90
2019-03-27T05:41:17.093Z,9.90
2019-03-27T05:43:48.556Z,9.90
2019-03-27T05:46:17.727Z,9.80
2019-03-27T05:48:50.846Z,9.90
2019-03-27T05:51:19.549Z,9.90
2019-03-27T05:53:48.415Z,9.90
2019-03-27T05:56:17.131Z,10.00
2019-03-27T05:58:47.339Z,10.00
2019-03-27T06:01:15.993Z,10.00
2019-03-27T06:03:44.708Z,10.00
2019-03-27T06:06:13.518Z,10.10
2019-03-27T06:08:42.215Z,10.10
2019-03-27T06:11:10.912Z,10.20
2019-03-27T06:13:39.578Z,10.20
2019-03-27T06:16:08.293Z,10.20
2019-03-27T06:18:38.502Z,10.20
2019-03-27T06:21:07.146Z,10.30
2019-03-27T06:23:42.936Z,10.30
2019-03-27T06:26:11.591Z,10.30
2019-03-27T06:28:43.162Z,10.40
2019-03-27T06:31:12.382Z,10.40
2019-03-27T06:33:41.015Z,10.40
2019-03-27T06:36:09.687Z,10.50
2019-03-27T06:38:38.332Z,10.60
2019-03-27T06:41:10.161Z,10.60
2019-03-27T06:43:38.814Z,10.40
2019-03-27T06:46:07.484Z,10.40
2019-03-27T06:48:36.201Z,10.50
2019-03-27T06:51:06.737Z,10.60
2019-03-27T06:53:35.369Z,10.70
2019-03-27T06:56:04.187Z,10.70
2019-03-27T06:58:34.497Z,10.90
2019-03-27T07:01:05.730Z,11.00
2019-03-27T07:03:34.737Z,11.10
2019-03-27T07:06:03.519Z,11.10
2019-03-27T07:08:33.704Z,11.10
2019-03-27T07:11:02.377Z,11.10
2019-03-27T07:13:31.039Z,11.20
2019-03-27T07:16:02.681Z,11.30
2019-03-27T07:18:39.888Z,11.40
2019-03-27T07:21:03.633Z,11.50
2019-03-27T07:23:32.414Z,11.60
2019-03-27T07:26:01.069Z,11.70
2019-03-27T07:28:31.427Z,11.70
2019-03-27T07:31:00.252Z,11.80
2019-03-27T07:33:31.469Z,11.70
2019-03-27T07:36:01.663Z,11.90
2019-03-27T07:38:30.321Z,12.00
2019-03-27T07:40:58.962Z,12.10
2019-03-27T07:43:28.563Z,12.30
2019-03-27T07:45:57.242Z,12.50
2019-03-27T07:48:25.870Z,12.70
2019-03-27T07:50:54.514Z,12.90
2019-03-27T07:53:23.988Z,12.90
2019-03-27T07:55:52.712Z,13.00
2019-03-27T07:58:23.019Z,12.90
2019-03-27T08:00:52.239Z,12.90
2019-03-27T08:03:25.187Z,13.00
2019-03-27T08:05:55.537Z,13.20
2019-03-27T08:08:25.520Z,13.50
2019-03-27T08:10:54.242Z,13.40
2019-03-27T08:13:22.893Z,13.40
2019-03-27T08:15:51.694Z,13.10
2019-03-27T08:18:20.432Z,13.00
2019-03-27T08:20:49.083Z,12.70
2019-03-27T08:23:19.280Z,12.90
2019-03-27T08:25:47.937Z,12.80
2019-03-27T08:28:16.732Z,13.00
2019-03-27T08:30:45.389Z,13.10
2019-03-27T08:33:14.032Z,13.30
2019-03-27T08:35:42.730Z,13.50
2019-03-27T08:38:11.448Z,13.80
2019-03-27T08:40:40.167Z,13.80
2019-03-27T08:43:20.507Z,13.90
2019-03-27T08:45:39.271Z,14.10
2019-03-27T08:48:07.991Z,14.30
2019-03-27T08:50:38.278Z,14.10
2019-03-27T08:53:07.010Z,14.10
2019-03-27T08:55:35.667Z,13.90
2019-03-27T08:58:04.459Z,14.10
2019-03-27T09:00:47.553Z,14.30
2019-03-27T09:03:16.548Z,14.50
2019-03-27T09:05:45.257Z,14.90
2019-03-27T09:08:14.187Z,15.10
2019-03-27T09:10:42.970Z,15.20
2019-03-27T09:13:11.712Z,15.30
2019-03-27T09:15:43.076Z,15.70
2019-03-27T09:18:11.824Z,15.50
2019-03-27T09:20:40.537Z,15.50
2019-03-27T09:23:09.291Z,15.50
2019-03-27T09:25:53.031Z,15.80
2019-03-27T09:28:25.111Z,16.20
2019-03-27T09:30:57.593Z,16.40
2019-03-27T09:33:26.354Z,16.60
2019-03-27T09:35:55.086Z,16.40
2019-03-27T09:38:25.146Z,16.60
2019-03-27T09:40:53.892Z,16.60
2019-03-27T09:43:22.586Z,16.90
2019-03-27T09:45:51.375Z,17.20
2019-03-27T09:48:20.152Z,17.20
2019-03-27T09:50:48.882Z,17.20
2019-03-27T09:53:17.618Z,17.70
2019-03-27T09:55:46.355Z,17.70
2019-03-27T09:58:17.782Z,17.80
2019-03-27T10:00:54.333Z,17.60
2019-03-27T10:03:22.979Z,17.70
2019-03-27T10:05:51.781Z,18.40
2019-03-27T10:08:20.451Z,18.30
2019-03-27T10:10:50.840Z,18.50
2019-03-27T10:13:20.060Z,18.50
2019-03-27T10:15:48.787Z,18.30
2019-03-27T10:18:17.442Z,18.30
2019-03-27T10:20:46.168Z,18.60
2019-03-27T10:23:16.186Z,18.60
2019-03-27T10:25:44.851Z,18.90
2019-03-27T10:28:13.511Z,19.10
2019-03-27T10:30:46.723Z,19.30
2019-03-27T10:33:16.993Z,19.20
2019-03-27T10:35:45.703Z,19.70
2019-03-27T10:38:14.361Z,19.90
2019-03-27T10:40:43.090Z,19.90
2019-03-27T10:43:13.371Z,19.80
2019-03-27T10:45:42.090Z,20.00
2019-03-27T10:48:10.749Z,19.90
2019-03-27T10:50:39.393Z,20.20
2019-03-27T10:53:09.759Z,20.00
2019-03-27T10:55:38.507Z,20.20
2019-03-27T10:58:07.916Z,20.00
2019-03-27T11:00:38.098Z,20.10
2019-03-27T11:03:06.751Z,20.30
2019-03-27T11:05:35.489Z,20.40
2019-03-27T11:08:04.283Z,21.00
2019-03-27T11:10:33.035Z,21.50
2019-03-27T11:13:01.685Z,21.10
2019-03-27T11:15:30.428Z,21.70
2019-03-27T11:17:59.814Z,22.40
2019-03-27T11:20:31.253Z,22.00
2019-03-27T11:23:01.494Z,22.60
2019-03-27T11:25:33.394Z,22.70
2019-03-27T11:28:02.146Z,22.60
2019-03-27T11:30:38.512Z,22.50
2019-03-27T11:33:07.393Z,22.60
2019-03-27T11:35:36.041Z,23.00
2019-03-27T11:38:04.794Z,23.30
2019-03-27T11:40:33.517Z,23.10
2019-03-27T11:43:06.956Z,23.30
2019-03-27T11:45:35.776Z,22.50
2019-03-27T11:48:08.071Z,22.40
2019-03-27T11:50:44.889Z,22.40
2019-03-27T11:53:06.432Z,22.40
2019-03-27T11:55:35.143Z,22.30
2019-03-27T11:58:21.805Z,21.90
2019-03-27T12:01:08.715Z,21.30
2019-03-27T12:03:41.424Z,21.90
2019-03-27T12:06:11.628Z,22.60
2019-03-27T12:08:40.732Z,23.50
2019-03-27T12:11:09.388Z,24.70
2019-03-27T12:13:40.793Z,24.50
2019-03-27T12:16:09.570Z,23.70
2019-03-27T12:18:38.441Z,22.70
2019-03-27T12:21:07.293Z,23.00
2019-03-27T12:23:36.168Z,23.90
2019-03-27T12:26:05.006Z,24.20
2019-03-27T12:28:33.863Z,24.00
2019-03-27T12:31:02.704Z,24.30
2019-03-27T12:33:31.355Z,23.40
2019-03-27T12:36:00.008Z,23.60
2019-03-27T12:38:28.679Z,23.70
2019-03-27T12:40:57.336Z,24.00
2019-03-27T12:43:26.070Z,24.60
2019-03-27T12:45:56.719Z,25.40
2019-03-27T12:48:25.363Z,24.90
2019-03-27T12:50:54.101Z,23.60
2019-03-27T12:53:22.746Z,23.80
2019-03-27T12:55:51.545Z,24.40
2019-03-27T12:58:20.194Z,24.50
2019-03-27T13:00:48.975Z,24.60
2019-03-27T13:03:17.628Z,23.20
2019-03-27T13:05:46.614Z,23.30
2019-03-27T13:08:15.379Z,23.60
2019-03-27T13:10:44.033Z,23.50
2019-03-27T13:13:12.700Z,23.70
2019-03-27T13:15:41.503Z,24.50
2019-03-27T13:18:11.704Z,24.30
2019-03-27T13:20:40.423Z,24.50
2019-03-27T13:23:09.079Z,25.00
2019-03-27T13:25:37.793Z,25.30
2019-03-27T13:28:06.595Z,26.50
2019-03-27T13:30:35.317Z,26.60
2019-03-27T13:33:04.143Z,26.50
2019-03-27T13:35:32.879Z,26.70
2019-03-27T13:38:01.607Z,25.90
2019-03-27T13:40:31.811Z,25.80
2019-03-27T13:43:00.522Z,25.70
2019-03-27T13:45:29.347Z,25.60
2019-03-27T13:47:58.099Z,25.70
2019-03-27T13:50:26.739Z,26.80
2019-03-27T13:52:55.391Z,27.30
2019-03-27T13:55:24.145Z,27.40
2019-03-27T13:57:52.789Z,27.10
2019-03-27T14:00:21.599Z,26.60
2019-03-27T14:02:50.363Z,26.50
2019-03-27T14:05:19.189Z,26.30
2019-03-27T14:07:47.936Z,25.80
2019-03-27T14:10:16.963Z,26.10
2019-03-27T14:12:46.602Z,25.70
2019-03-27T14:15:15.826Z,26.60
2019-03-27T14:17:45.463Z,26.60
2019-03-27T14:20:14.813Z,26.80
2019-03-27T14:22:43.647Z,27.00
2019-03-27T14:25:12.936Z,27.10
2019-03-27T14:27:45.051Z,27.00
2019-03-27T14:30:15.227Z,26.90
2019-03-27T14:32:43.949Z,26.90
2019-03-27T14:35:12.938Z,27.10
2019-03-27T14:37:41.683Z,27.00
2019-03-27T14:40:10.682Z,26.80
2019-03-27T14:42:39.488Z,26.60
2019-03-27T14:45:08.905Z,26.50
2019-03-27T14:47:37.895Z,26.60
2019-03-27T14:50:08.280Z,26.80
2019-03-27T14:52:39.891Z,27.30
2019-03-27T14:55:08.875Z,26.80
2019-03-27T14:57:38.188Z,27.50
2019-03-27T15:00:11.256Z,27.40
2019-03-27T15:02:40.000Z,26.60
2019-03-27T15:05:10.255Z,26.10
2019-03-27T15:07:39.009Z,26.20
2019-03-27T15:10:09.130Z,26.60
2019-03-27T15:12:38.015Z,26.90
2019-03-27T15:15:09.291Z,25.50
2019-03-27T15:17:38.085Z,25.40
2019-03-27T15:20:08.746Z,25.30
2019-03-27T15:22:37.580Z,26.60
2019-03-27T15:25:07.206Z,26.80
2019-03-27T15:27:35.923Z,26.50
2019-03-27T15:30:12.474Z,25.50
2019-03-27T15:32:39.436Z,24.30
2019-03-27T15:35:08.412Z,22.20
2019-03-27T15:37:37.171Z,21.90
2019-03-27T15:40:06.854Z,23.00
2019-03-27T15:42:35.757Z,24.10
2019-03-27T15:45:07.837Z,24.20
2019-03-27T15:47:36.572Z,25.40
2019-03-27T15:50:07.792Z,25.70
2019-03-27T15:52:37.166Z,25.30
2019-03-27T15:55:06.723Z,25.30
2019-03-27T15:57:35.380Z,25.50
2019-03-27T16:00:06.167Z,25.60
2019-03-27T16:02:34.900Z,24.50
2019-03-27T16:05:04.243Z,23.50
2019-03-27T16:07:34.243Z,22.20
2019-03-27T16:10:03.002Z,21.00
2019-03-27T16:12:31.742Z,20.20
2019-03-27T16:15:01.438Z,19.60
2019-03-27T16:17:30.096Z,19.20
2019-03-27T16:19:58.827Z,19.20
2019-03-27T16:22:27.558Z,19.10
2019-03-27T16:24:56.229Z,19.20
2019-03-27T16:27:24.887Z,18.90
2019-03-27T16:29:53.547Z,18.70
2019-03-27T16:32:22.278Z,18.50
2019-03-27T16:34:51.007Z,18.50
2019-03-27T16:37:19.815Z,18.40
2019-03-27T16:39:48.573Z,18.20
2019-03-27T16:42:17.235Z,17.90
2019-03-27T16:44:45.902Z,17.70
2019-03-27T16:47:14.627Z,17.60
2019-03-27T16:49:43.399Z,17.40
2019-03-27T16:52:12.178Z,17.40
2019-03-27T16:54:40.995Z,17.40
2019-03-27T16:57:09.637Z,17.40
2019-03-27T16:59:38.292Z,17.30
2019-03-27T17:02:07.139Z,17.30
2019-03-27T17:04:35.778Z,17.30
2019-03-27T17:07:04.577Z,17.20
2019-03-27T17:09:33.254Z,17.20
2019-03-27T17:12:01.991Z,17.20
2019-03-27T17:14:30.726Z,17.00
2019-03-27T17:16:59.589Z,16.80
2019-03-27T17:19:28.279Z,16.70
2019-03-27T17:21:57.001Z,16.60
2019-03-27T17:24:25.710Z,16.60
2019-03-27T17:26:54.356Z,16.60
2019-03-27T17:29:23.107Z,16.60
2019-03-27T17:31:51.789Z,16.50
2019-03-27T17:34:20.455Z,16.40
2019-03-27T17:36:49.223Z,16.40
2019-03-27T17:42:04.003Z,16.30
2019-03-27T17:44:32.666Z,16.10
2019-03-27T17:47:01.321Z,16.10
2019-03-27T17:49:30.123Z,16.10
2019-03-27T17:51:58.863Z,16.10
2019-03-27T17:54:27.522Z,16.10
2019-03-27T17:56:56.190Z,16.00
2019-03-27T17:59:24.945Z,16.00
2019-03-27T18:01:53.608Z,15.90
2019-03-27T18:04:22.276Z,15.90
2019-03-27T18:06:50.945Z,15.70
2019-03-27T18:09:19.596Z,15.60
2019-03-27T18:11:48.372Z,15.50
2019-03-27T18:14:17.029Z,15.50
2019-03-27T18:16:45.829Z,15.50
2019-03-27T18:19:14.524Z,15.50
2019-03-27T18:21:43.186Z,15.40
2019-03-27T18:24:11.942Z,15.40
2019-03-27T18:26:40.600Z,15.30
2019-03-27T18:29:09.398Z,15.20
2019-03-27T18:31:38.134Z,15.20
2019-03-27T18:34:06.891Z,15.00
2019-03-27T18:36:35.619Z,14.90
2019-03-27T18:39:07.054Z,14.80
2019-03-27T18:41:35.803Z,14.60
2019-03-27T18:44:04.713Z,14.60
2019-03-27T18:46:33.374Z,14.70
2019-03-27T18:49:02.038Z,14.80
2019-03-27T18:51:30.697Z,14.60
2019-03-27T18:54:00.216Z,14.50
2019-03-27T18:56:29.079Z,14.40
2019-03-27T18:58:57.866Z,14.40
2019-03-27T19:01:26.650Z,14.30
2019-03-27T19:03:55.298Z,14.40
2019-03-27T19:06:24.067Z,14.40
2019-03-27T19:08:52.726Z,14.20
2019-03-27T19:11:21.492Z,14.20
2019-03-27T19:13:50.161Z,14.10
2019-03-27T19:16:18.902Z,14.20
2019-03-27T19:18:47.568Z,13.90
2019-03-27T19:21:16.219Z,13.80
2019-03-27T19:23:44.932Z,13.70
2019-03-27T19:26:13.794Z,13.80
2019-03-27T19:28:42.542Z,13.90
2019-03-27T19:31:11.316Z,14.00
2019-03-27T19:33:40.619Z,13.90
2019-03-27T19:36:09.457Z,13.80
2019-03-27T19:38:38.213Z,13.80
2019-03-27T19:41:06.957Z,13.70
2019-03-27T19:43:35.720Z,13.50
2019-03-27T19:46:04.529Z,13.30
2019-03-27T19:48:35.772Z,13.10
2019-03-27T19:51:04.591Z,13.00
2019-03-27T19:53:33.434Z,12.90
2019-03-27T19:56:02.082Z,12.90
2019-03-27T19:58:30.746Z,12.90
2019-03-27T20:00:59.554Z,12.80
2019-03-27T20:03:28.314Z,13.00
2019-03-27T20:05:56.961Z,13.20
2019-03-27T20:08:25.651Z,13.20
2019-03-27T20:10:54.399Z,13.20
2019-03-27T20:13:23.063Z,13.20
2019-03-27T20:15:51.828Z,13.20
2019-03-27T20:18:20.520Z,13.30
2019-03-27T20:20:49.197Z,13.30
2019-03-27T20:23:17.927Z,13.20
2019-03-27T20:25:46.672Z,13.20
2019-03-27T20:28:15.389Z,13.30
2019-03-27T20:30:44.278Z,13.30
2019-03-27T20:33:12.983Z,13.20
2019-03-27T20:35:41.715Z,13.10
2019-03-27T20:38:10.370Z,13.00
2019-03-27T20:40:39.247Z,12.80
2019-03-27T20:43:07.910Z,12.60
2019-03-27T20:45:36.781Z,12.40
2019-03-27T20:48:05.503Z,12.40
2019-03-27T20:50:34.203Z,12.40
2019-03-27T20:53:02.957Z,12.30
2019-03-27T20:55:31.690Z,12.40
2019-03-27T20:58:00.459Z,12.30
2019-03-27T21:00:29.228Z,12.20
2019-03-27T21:02:57.898Z,12.20
2019-03-27T21:05:26.557Z,12.20
2019-03-27T21:07:55.225Z,12.20
2019-03-27T21:10:24.015Z,12.20
2019-03-27T21:12:52.851Z,12.20
2019-03-27T21:15:21.628Z,12.10
2019-03-27T21:17:50.446Z,12.10
2019-03-27T21:20:19.103Z,12.00
2019-03-27T21:22:47.845Z,12.00
2019-03-27T21:25:16.817Z,12.00
2019-03-27T21:27:45.523Z,12.00
2019-03-27T21:30:15.014Z,12.00
2019-03-27T21:32:43.631Z,12.00
2019-03-27T21:35:12.415Z,11.90
2019-03-27T21:37:41.101Z,11.90
2019-03-27T21:40:10.069Z,11.90
2019-03-27T21:42:38.730Z,11.90
2019-03-27T21:45:09.250Z,11.90
2019-03-27T21:47:37.931Z,11.80
2019-03-27T21:50:07.803Z,11.80
2019-03-27T21:52:36.440Z,12.00
2019-03-27T21:55:07.205Z,12.00
2019-03-27T21:57:35.831Z,11.90
2019-03-27T22:00:07.306Z,11.80
2019-03-27T22:02:35.927Z,11.80
2019-03-27T22:05:06.407Z,11.70
2019-03-27T22:07:35.143Z,11.80
2019-03-27T22:10:05.610Z,11.80
2019-03-27T22:12:34.302Z,11.70
2019-03-27T22:15:03.063Z,11.70
2019-03-27T22:17:31.727Z,11.80
2019-03-27T22:20:00.359Z,11.80
2019-03-27T22:22:29.067Z,11.70
2019-03-27T22:24:58.103Z,11.60
2019-03-27T22:27:26.711Z,11.60
2019-03-27T22:29:55.341Z,11.60
2019-03-27T22:32:23.991Z,11.60
2019-03-27T22:34:52.603Z,11.50
2019-03-27T22:37:21.219Z,11.50
2019-03-27T22:39:49.918Z,11.40
2019-03-27T22:42:18.565Z,11.50
2019-03-27T22:44:47.187Z,11.40
2019-03-27T22:47:15.871Z,11.40
2019-03-27T22:49:44.567Z,11.40
2019-03-27T22:52:13.209Z,11.50
2019-03-27T22:54:41.836Z,11.50
2019-03-27T22:57:10.521Z,11.40
2019-03-27T22:59:39.143Z,11.40
2019-03-27T23:02:07.848Z,11.30
2019-03-27T23:04:36.492Z,11.30
2019-03-27T23:07:05.245Z,11.40
2019-03-27T23:09:33.858Z,11.40
2019-03-27T23:12:02.563Z,11.20
2019-03-27T23:14:31.275Z,11.20
2019-03-27T23:16:59.983Z,11.20
2019-03-27T23:19:28.707Z,11.10
2019-03-27T23:21:57.332Z,11.00
2019-03-27T23:24:26.091Z,11.00
2019-03-27T23:26:54.792Z,10.90
2019-03-27T23:29:23.549Z,10.90
2019-03-27T23:31:52.185Z,10.80
2019-03-27T23:34:20.797Z,10.70
2019-03-27T23:36:49.427Z,10.70
2019-03-27T23:39:18.088Z,10.70
2019-03-27T23:41:46.698Z,10.60
2019-03-27T23:44:15.330Z,10.60
2019-03-27T23:46:44.022Z,10.50
2019-03-27T23:49:12.658Z,10.50
2019-03-27T23:51:41.419Z,10.60
2019-03-27T23:54:10.115Z,10.60
2019-03-27T23:56:38.730Z,10.60
2019-03-27T23:59:07.427Z,10.50
